createdAt,value
2022-12-24T18:41:58.139Z,32.83
2022-12-24T18:44:25.750Z,32.30
2022-12-24T18:46:55.000Z,35.40
2022-12-24T18:49:21.775Z,25.57
2022-12-24T18:51:48.693Z,31.50
2022-12-24T18:54:15.283Z,38.20
2022-12-24T18:56:41.987Z,29.27
2022-12-24T18:59:10.433Z,24.63
2022-12-24T19:01:37.267Z,26.63
2022-12-24T19:04:04.246Z,28.20
2022-12-24T19:06:31.111Z,25.40
2022-12-24T19:08:59.727Z,21.37
2022-12-24T19:11:29.425Z,25.83
2022-12-24T19:13:57.845Z,24.03
2022-12-24T19:16:24.946Z,26.00
2022-12-24T19:18:51.637Z,29.10
2022-12-24T19:21:18.587Z,29.73
2022-12-24T19:23:46.170Z,27.50
2022-12-24T19:26:14.903Z,32.73
2022-12-24T19:28:42.369Z,50.70
2022-12-24T19:31:11.911Z,49.70
2022-12-24T19:33:42.716Z,44.60
2022-12-24T19:36:13.132Z,33.77
2022-12-24T19:38:40.380Z,34.60
2022-12-24T19:41:12.320Z,50.27
2022-12-24T19:43:41.293Z,50.73
2022-12-24T19:46:09.519Z,63.80
2022-12-24T19:48:36.793Z,50.33
2022-12-24T19:51:05.236Z,57.87
2022-12-24T19:53:32.248Z,69.40
2022-12-24T19:56:00.337Z,68.93
2022-12-24T19:58:28.159Z,66.80
2022-12-24T20:00:55.077Z,78.00
2022-12-24T20:03:22.126Z,80.40
2022-12-24T20:05:48.879Z,69.43
2022-12-24T20:08:15.530Z,72.67
2022-12-24T20:10:44.236Z,73.63
2022-12-24T20:13:11.046Z,70.63
2022-12-24T20:15:42.511Z,60.20
2022-12-24T20:18:10.790Z,70.07
2022-12-24T20:20:38.236Z,71.60
2022-12-24T20:23:05.553Z,59.77
2022-12-24T20:25:36.714Z,73.90
2022-12-24T20:28:04.646Z,90.33
2022-12-24T20:30:31.493Z,68.03
2022-12-24T20:32:58.278Z,67.13
2022-12-24T20:35:25.096Z,53.53
2022-12-24T20:37:51.755Z,50.70
2022-12-24T20:40:18.500Z,49.70
2022-12-24T20:42:45.300Z,39.87
2022-12-24T20:45:12.023Z,44.33
2022-12-24T20:47:39.161Z,41.70
2022-12-24T20:50:06.410Z,36.40
2022-12-24T20:52:33.114Z,41.03
2022-12-24T20:54:59.838Z,53.70
2022-12-24T20:57:31.451Z,41.17
2022-12-24T21:00:05.171Z,36.87
2022-12-24T21:02:31.940Z,36.40
2022-12-24T21:05:02.206Z,39.70
2022-12-24T21:07:29.682Z,37.17
2022-12-24T21:09:56.302Z,42.23
2022-12-24T21:12:41.620Z,53.37
2022-12-24T21:15:08.434Z,66.07
2022-12-24T21:17:35.150Z,50.70
2022-12-24T21:20:02.046Z,67.53
2022-12-24T21:22:28.641Z,70.10
2022-12-24T21:24:55.285Z,56.50
2022-12-24T21:27:22.010Z,49.67
2022-12-24T21:29:50.552Z,57.20
2022-12-24T21:32:17.187Z,46.07
2022-12-24T21:34:45.453Z,54.57
2022-12-24T21:37:14.022Z,34.33
2022-12-24T21:39:40.639Z,41.97
2022-12-24T21:42:07.457Z,39.70
2022-12-24T21:44:37.835Z,41.17
2022-12-24T21:47:04.594Z,40.67
2022-12-24T21:49:50.842Z,42.17
2022-12-24T21:52:17.515Z,34.27
2022-12-24T21:54:44.154Z,30.30
2022-12-24T21:57:29.531Z,21.63
2022-12-24T22:00:17.854Z,27.57
2022-12-24T22:02:45.636Z,42.00
2022-12-24T22:05:12.529Z,30.87
2022-12-24T22:07:58.113Z,24.83
2022-12-24T22:10:43.697Z,32.70
2022-12-24T22:13:10.349Z,25.00
2022-12-24T22:15:46.085Z,42.23
2022-12-24T22:18:15.666Z,41.00
2022-12-24T22:20:43.542Z,57.00
2022-12-24T22:23:10.606Z,62.90
2022-12-24T22:25:37.756Z,69.10
2022-12-24T22:28:05.248Z,60.23
2022-12-24T22:30:36.087Z,37.17
2022-12-24T22:33:02.716Z,43.37
2022-12-24T22:35:29.395Z,29.97
2022-12-24T22:37:59.980Z,29.03
2022-12-24T22:40:27.807Z,29.07
2022-12-24T22:42:54.428Z,39.27
2022-12-24T22:45:22.730Z,35.00
2022-12-24T22:47:49.875Z,28.93
2022-12-24T22:50:16.993Z,28.00
2022-12-24T22:52:43.654Z,37.57
2022-12-24T22:55:10.288Z,31.07
2022-12-24T22:57:36.924Z,30.07
2022-12-24T23:00:09.179Z,24.87
2022-12-24T23:02:35.967Z,26.97
2022-12-24T23:05:02.781Z,27.60
2022-12-24T23:07:29.503Z,23.17
2022-12-24T23:09:56.987Z,19.83
2022-12-24T23:12:43.711Z,18.80
2022-12-24T23:15:10.723Z,21.93
2022-12-24T23:17:37.431Z,21.10
2022-12-24T23:20:04.621Z,21.60
2022-12-24T23:22:31.303Z,20.00
2022-12-24T23:24:57.960Z,24.87
2022-12-24T23:27:24.760Z,29.10
2022-12-24T23:29:51.429Z,28.57
2022-12-24T23:32:18.100Z,31.07
2022-12-24T23:34:44.793Z,28.23
2022-12-24T23:37:11.414Z,38.60
2022-12-24T23:39:37.990Z,38.50
2022-12-24T23:42:06.157Z,40.57
2022-12-24T23:44:33.059Z,36.43
2022-12-24T23:47:00.088Z,38.40
2022-12-24T23:49:26.939Z,36.87
2022-12-24T23:51:56.474Z,33.50
2022-12-24T23:54:23.122Z,49.63
2022-12-24T23:56:49.769Z,32.00
2022-12-24T23:59:16.408Z,25.17
